createdAt,value
2019-03-09T00:00:58.292Z,99973.23
2019-03-09T00:03:30.549Z,99976.84
2019-03-09T00:06:02.892Z,99979.58
2019-03-09T00:08:35.672Z,99976.65
2019-03-09T00:11:07.998Z,99976.28
2019-03-09T00:13:41.065Z,99977.28
2019-03-09T00:16:14.648Z,99982.58
2019-03-09T00:18:47.089Z,99985.25
2019-03-09T00:21:22.090Z,99978.37
2019-03-09T00:24:10.960Z,99988.81
2019-03-09T00:26:48.748Z,99995.38
2019-03-09T00:29:34.448Z,99996.28
2019-03-09T00:32:09.118Z,99999.78
2019-03-09T00:34:43.958Z,99998.91
2019-03-09T00:37:16.148Z,99994.14
2019-03-09T00:39:47.379Z,99984.20
2019-03-09T00:42:19.511Z,99991.61
2019-03-09T00:44:51.851Z,99989.47
2019-03-09T00:47:24.179Z,99984.37
2019-03-09T00:49:56.634Z,99984.40
2019-03-09T00:52:28.980Z,99983.63
2019-03-09T00:55:02.271Z,99988.46
2019-03-09T00:57:34.619Z,99986.33
2019-03-09T01:00:09.371Z,99992.45
2019-03-09T01:02:41.870Z,99986.27
2019-03-09T01:05:14.468Z,99992.51
2019-03-09T01:07:46.859Z,99994.02
2019-03-09T01:10:19.258Z,99996.91
2019-03-09T01:12:51.590Z,99996.59
2019-03-09T01:15:24.988Z,100004.44
2019-03-09T01:17:57.518Z,100006.60
2019-03-09T01:20:30.004Z,100010.50
2019-03-09T01:23:02.698Z,100010.55
2019-03-09T01:25:35.052Z,100017.59
2019-03-09T01:28:07.554Z,100024.63
2019-03-09T01:30:40.923Z,100027.43
2019-03-09T01:33:13.298Z,100028.35
2019-03-09T01:35:45.593Z,100033.49
2019-03-09T01:38:18.031Z,100024.95
2019-03-09T01:40:51.559Z,100031.08
2019-03-09T01:43:24.000Z,100034.21
2019-03-09T01:45:56.340Z,100024.37
2019-03-09T01:48:28.791Z,100019.73
2019-03-09T01:51:01.209Z,100018.54
2019-03-09T01:53:36.951Z,100013.41
2019-03-09T01:56:07.827Z,100012.16
2019-03-09T01:58:40.609Z,100017.41
2019-03-09T02:01:13.748Z,100019.17
2019-03-09T02:03:47.658Z,100023.59
2019-03-09T02:06:20.100Z,100023.23
2019-03-09T02:08:52.430Z,100019.47
2019-03-09T02:11:24.910Z,100018.22
2019-03-09T02:13:57.370Z,100017.97
2019-03-09T02:16:29.752Z,100011.58
2019-03-09T02:19:02.060Z,100017.25
2019-03-09T02:21:34.449Z,100016.70
2019-03-09T02:24:06.828Z,100016.16
2019-03-09T02:26:40.229Z,100015.64
2019-03-09T02:29:12.810Z,100014.76
2019-03-09T02:31:44.008Z,100015.22
2019-03-09T02:34:16.098Z,100011.25
2019-03-09T02:36:48.440Z,100011.99
2019-03-09T02:39:43.851Z,100012.28
2019-03-09T02:42:16.189Z,100001.22
2019-03-09T02:44:48.605Z,99998.73
2019-03-09T02:47:20.981Z,99997.69
2019-03-09T02:49:53.380Z,99990.52
2019-03-09T02:52:25.739Z,99983.89
2019-03-09T02:54:58.097Z,99979.85
2019-03-09T02:57:30.420Z,99982.83
2019-03-09T03:00:02.626Z,99988.83
2019-03-09T03:02:44.959Z,99978.87
2019-03-09T03:05:17.838Z,99977.92
2019-03-09T03:07:50.235Z,99974.37
2019-03-09T03:10:22.551Z,99974.83
2019-03-09T03:12:54.951Z,99973.09
2019-03-09T03:15:34.785Z,99977.48
2019-03-09T03:18:07.110Z,99970.65
2019-03-09T03:20:38.495Z,99975.03
2019-03-09T03:23:10.609Z,99976.80
2019-03-09T03:25:42.930Z,99973.84
2019-03-09T03:28:16.250Z,99975.64
2019-03-09T03:30:48.963Z,99978.23
2019-03-09T03:33:21.461Z,99979.13
2019-03-09T03:35:53.970Z,99980.13
2019-03-09T03:38:26.241Z,99974.54
2019-03-09T03:40:57.548Z,99978.86
2019-03-09T03:43:29.799Z,99972.52
2019-03-09T03:46:02.132Z,99963.05
2019-03-09T03:48:36.997Z,99969.97
2019-03-09T03:51:09.259Z,99967.89
2019-03-09T03:53:40.479Z,99980.47
2019-03-09T03:56:12.588Z,99975.68
2019-03-09T03:58:45.111Z,99978.41
2019-03-09T04:01:17.466Z,99974.52
2019-03-09T04:03:49.860Z,99967.59
2019-03-09T04:06:22.569Z,99969.78
2019-03-09T04:08:55.501Z,99962.00
2019-03-09T04:11:27.973Z,99967.22
2019-03-09T04:14:00.451Z,99967.36
2019-03-09T04:16:33.727Z,99960.52
2019-03-09T04:19:06.140Z,99961.84
2019-03-09T04:21:38.395Z,99954.54
2019-03-09T04:24:10.918Z,99955.79
2019-03-09T04:26:43.298Z,99951.81
2019-03-09T04:29:15.842Z,99947.48
2019-03-09T04:31:48.130Z,99937.19
2019-03-09T04:34:20.890Z,99941.59
2019-03-09T04:37:01.731Z,99942.64
2019-03-09T04:39:34.137Z,99938.00
2019-03-09T04:42:06.369Z,99937.18
2019-03-09T04:44:37.558Z,99938.20
2019-03-09T04:47:09.558Z,99941.76
2019-03-09T04:49:40.908Z,99920.48
2019-03-09T04:52:13.018Z,99923.43
2019-03-09T04:54:45.738Z,99928.16
2019-03-09T04:57:16.998Z,99920.70
2019-03-09T04:59:49.098Z,99918.59
2019-03-09T05:02:21.578Z,99915.11
2019-03-09T05:04:54.670Z,99923.24
2019-03-09T05:07:41.892Z,99924.95
2019-03-09T05:10:52.970Z,99920.76
2019-03-09T05:13:29.029Z,99913.33
2019-03-09T05:16:02.350Z,99915.08
2019-03-09T05:18:34.700Z,99917.25
2019-03-09T05:21:07.073Z,99922.53
2019-03-09T05:23:39.577Z,99919.16
2019-03-09T05:26:11.886Z,99916.61
2019-03-09T05:28:43.160Z,99921.48
2019-03-09T05:31:15.249Z,99918.45
2019-03-09T05:33:46.478Z,99912.09
2019-03-09T05:36:18.571Z,99904.36
2019-03-09T05:38:51.287Z,99906.12
2019-03-09T05:41:23.741Z,99899.53
2019-03-09T05:43:56.140Z,99899.97
2019-03-09T05:46:28.441Z,99898.16
2019-03-09T05:49:00.861Z,99893.78
2019-03-09T05:51:33.078Z,99896.73
2019-03-09T05:54:04.379Z,99893.69
2019-03-09T05:56:36.810Z,99889.30
2019-03-09T05:59:09.259Z,99884.09
2019-03-09T06:01:41.748Z,99887.58
2019-03-09T06:04:14.222Z,99882.42
2019-03-09T06:06:46.548Z,99873.63
2019-03-09T06:09:18.849Z,99866.58
2019-03-09T06:11:51.108Z,99870.81
2019-03-09T06:14:23.718Z,99861.95
2019-03-09T06:16:56.099Z,99855.59
2019-03-09T06:19:28.599Z,99851.90
2019-03-09T06:22:00.969Z,99850.95
2019-03-09T06:24:33.349Z,99845.17
2019-03-09T06:27:05.658Z,99836.39
2019-03-09T06:29:38.110Z,99835.77
2019-03-09T06:32:45.150Z,99835.45
2019-03-09T06:35:17.598Z,99837.62
2019-03-09T06:37:55.926Z,99836.35
2019-03-09T06:40:28.308Z,99838.47
2019-03-09T06:43:00.578Z,99835.78
2019-03-09T06:45:31.809Z,99833.20
2019-03-09T06:48:04.024Z,99828.11
2019-03-09T06:50:37.230Z,99824.30
2019-03-09T06:53:09.610Z,99818.28
2019-03-09T06:55:41.998Z,99819.50
2019-03-09T06:58:14.370Z,99818.94
2019-03-09T07:00:48.280Z,99810.84
2019-03-09T07:03:20.989Z,99807.73
2019-03-09T07:05:53.369Z,99815.86
2019-03-09T07:08:26.928Z,99812.05
2019-03-09T07:10:59.404Z,99798.88
2019-03-09T07:13:31.750Z,99804.73
2019-03-09T07:16:04.229Z,99796.75
2019-03-09T07:18:38.861Z,99801.42
2019-03-09T07:21:11.260Z,99789.98
2019-03-09T07:23:43.723Z,99784.95
2019-03-09T07:26:16.181Z,99783.02
2019-03-09T07:28:48.528Z,99787.80
2019-03-09T07:31:21.050Z,99783.41
2019-03-09T07:34:21.090Z,99773.27
2019-03-09T07:36:53.528Z,99765.44
2019-03-09T07:39:25.943Z,99769.41
2019-03-09T07:41:58.610Z,99755.86
2019-03-09T07:44:31.000Z,99757.31
2019-03-09T07:47:03.578Z,99749.95
2019-03-09T07:49:36.352Z,99743.67
2019-03-09T07:52:32.288Z,99745.87
2019-03-09T07:55:05.115Z,99742.73
2019-03-09T07:57:37.968Z,99739.88
2019-03-09T08:00:15.984Z,99735.66
2019-03-09T08:02:48.714Z,99732.06
2019-03-09T08:05:21.100Z,99726.64
2019-03-09T08:07:53.692Z,99726.05
2019-03-09T08:10:26.269Z,99721.41
2019-03-09T08:12:58.758Z,99709.55
2019-03-09T08:15:31.198Z,99708.30
2019-03-09T08:18:04.382Z,99706.14
2019-03-09T08:20:37.000Z,99698.14
2019-03-09T08:23:09.489Z,99696.91
2019-03-09T08:25:42.018Z,99698.46
2019-03-09T08:28:16.325Z,99689.69
2019-03-09T08:30:48.729Z,99687.75
2019-03-09T08:33:21.683Z,99683.50
2019-03-09T08:35:54.205Z,99684.97
2019-03-09T08:38:26.762Z,99673.92
2019-03-09T08:40:59.222Z,99686.72
2019-03-09T08:43:31.639Z,99681.03
2019-03-09T08:46:04.160Z,99682.27
2019-03-09T08:48:36.698Z,99675.11
2019-03-09T08:51:09.181Z,99673.80
2019-03-09T08:53:41.655Z,99675.65
2019-03-09T08:56:14.505Z,99674.36
2019-03-09T08:58:46.930Z,99668.38
2019-03-09T09:01:19.358Z,99652.65
2019-03-09T09:03:51.780Z,99650.84
2019-03-09T09:06:24.280Z,99642.42
2019-03-09T09:08:56.728Z,99642.00
2019-03-09T09:11:29.060Z,99631.78
2019-03-09T09:14:01.465Z,99635.50
2019-03-09T09:16:33.940Z,99625.33
2019-03-09T09:19:06.430Z,99612.76
2019-03-09T09:21:39.512Z,99602.22
2019-03-09T09:24:11.940Z,99586.88
2019-03-09T09:26:45.592Z,99580.27
2019-03-09T09:29:18.000Z,99568.79
2019-03-09T09:31:50.340Z,99564.73
2019-03-09T09:34:22.764Z,99556.52
2019-03-09T09:36:56.357Z,99547.09
2019-03-09T09:39:29.502Z,99549.86
2019-03-09T09:42:02.309Z,99553.82
2019-03-09T09:44:34.887Z,99539.50
2019-03-09T09:47:07.358Z,99526.77
2019-03-09T09:49:39.809Z,99529.73
2019-03-09T09:52:12.230Z,99517.44
2019-03-09T09:54:44.710Z,99515.29
2019-03-09T09:57:17.289Z,99508.50
2019-03-09T09:59:49.918Z,99491.42
2019-03-09T10:02:21.206Z,99490.92
2019-03-09T10:04:53.555Z,99483.00
2019-03-09T10:07:26.123Z,99484.17
2019-03-09T10:10:04.280Z,99482.52
2019-03-09T10:12:39.029Z,99461.82
2019-03-09T10:15:14.412Z,99451.77
2019-03-09T10:17:47.317Z,99452.44
2019-03-09T10:20:21.356Z,99441.78
2019-03-09T10:23:03.439Z,99437.98
2019-03-09T10:25:29.550Z,99421.55
2019-03-09T10:28:01.970Z,99413.83
2019-03-09T10:30:35.477Z,99409.19
2019-03-09T10:33:08.407Z,99399.00
2019-03-09T10:35:42.128Z,99392.13
2019-03-09T10:38:14.540Z,99388.83
2019-03-09T10:40:47.101Z,99392.36
2019-03-09T10:43:19.710Z,99364.09
2019-03-09T10:45:52.309Z,99373.84
2019-03-09T10:48:24.887Z,99374.64
2019-03-09T10:50:58.197Z,99364.62
2019-03-09T10:53:31.853Z,99365.09
2019-03-09T10:56:04.280Z,99358.51
2019-03-09T10:58:36.608Z,99351.47
2019-03-09T11:01:08.419Z,99361.06
2019-03-09T11:03:40.920Z,99337.77
2019-03-09T11:06:13.400Z,99334.64
2019-03-09T11:08:45.830Z,99322.69
2019-03-09T11:11:18.390Z,99315.16
2019-03-09T11:13:52.105Z,99324.20
2019-03-09T11:16:24.718Z,99308.37
2019-03-09T11:18:57.400Z,99303.71
2019-03-09T11:21:29.833Z,99288.12
2019-03-09T11:24:02.418Z,99284.39
2019-03-09T11:26:35.311Z,99274.22
2019-03-09T11:29:09.660Z,99277.41
2019-03-09T11:31:42.310Z,99248.96
2019-03-09T11:34:14.780Z,99252.05
2019-03-09T11:36:47.357Z,99252.66
2019-03-09T11:39:19.959Z,99256.95
2019-03-09T11:41:52.349Z,99244.06
2019-03-09T11:44:24.659Z,99235.72
2019-03-09T11:46:56.906Z,99235.18
2019-03-09T11:49:29.353Z,99228.14
2019-03-09T11:52:01.901Z,99220.55
2019-03-09T11:54:34.280Z,99201.78
2019-03-09T11:57:06.677Z,99188.50
2019-03-09T11:59:38.960Z,99188.25
2019-03-09T12:02:10.229Z,99191.84
2019-03-09T12:04:47.095Z,99174.36
2019-03-09T12:07:18.240Z,99167.42
2019-03-09T12:09:50.650Z,99174.04
2019-03-09T12:12:23.100Z,99162.83
2019-03-09T12:14:55.590Z,99164.31
2019-03-09T12:17:28.550Z,99142.25
2019-03-09T12:20:00.849Z,99138.97
2019-03-09T12:22:33.543Z,99136.19
2019-03-09T12:25:06.428Z,99117.69
2019-03-09T12:27:39.838Z,99121.20
2019-03-09T12:30:13.570Z,99120.17
2019-03-09T12:32:46.110Z,99115.39
2019-03-09T12:35:18.561Z,99120.86
2019-03-09T12:37:51.000Z,99152.85
2019-03-09T12:40:23.410Z,99157.44
2019-03-09T12:42:56.708Z,99195.58
2019-03-09T12:45:28.088Z,99188.34
2019-03-09T12:48:00.370Z,99151.69
2019-03-09T12:50:32.933Z,99183.13
2019-03-09T12:53:05.250Z,99196.08
2019-03-09T12:55:37.671Z,99188.62
2019-03-09T12:58:10.219Z,99195.98
2019-03-09T13:00:43.660Z,99207.02
2019-03-09T13:03:16.131Z,99191.73
2019-03-09T13:05:48.732Z,99201.98
2019-03-09T13:08:23.565Z,99186.35
2019-03-09T13:10:56.294Z,99183.17
2019-03-09T13:13:28.739Z,99185.48
2019-03-09T13:16:05.820Z,99186.02
2019-03-09T13:18:39.980Z,99191.58
2019-03-09T13:21:13.360Z,99181.61
2019-03-09T13:23:45.860Z,99184.83
2019-03-09T13:26:20.119Z,99185.86
2019-03-09T13:28:52.880Z,99192.89
2019-03-09T13:31:25.380Z,99208.79
2019-03-09T13:33:57.954Z,99204.75
2019-03-09T13:36:30.590Z,99215.97
2019-03-09T13:39:03.200Z,99228.06
2019-03-09T13:41:36.499Z,99232.16
2019-03-09T13:44:09.427Z,99210.05
2019-03-09T13:46:42.162Z,99219.66
2019-03-09T13:49:15.666Z,99216.52
2019-03-09T13:51:48.100Z,99212.12
2019-03-09T13:54:20.742Z,99198.32
2019-03-09T13:56:53.340Z,99201.31
2019-03-09T13:59:27.409Z,99196.95
2019-03-09T14:02:01.361Z,99198.09
2019-03-09T14:04:33.900Z,99198.41
2019-03-09T14:07:06.330Z,99201.02
2019-03-09T14:09:38.810Z,99193.37
2019-03-09T14:12:11.243Z,99189.80
2019-03-09T14:14:43.714Z,99185.87
2019-03-09T14:17:16.130Z,99183.20
2019-03-09T14:19:49.249Z,99188.29
2019-03-09T14:22:24.810Z,99190.28
2019-03-09T14:24:57.270Z,99190.91
2019-03-09T14:27:29.609Z,99188.86
2019-03-09T14:30:02.750Z,99193.78
2019-03-09T14:32:35.900Z,99182.38
2019-03-09T14:35:08.650Z,99181.64
2019-03-09T14:37:41.136Z,99172.30
2019-03-09T14:40:13.807Z,99174.23
2019-03-09T14:42:47.426Z,99169.24
2019-03-09T14:45:19.860Z,99162.67
2019-03-09T14:47:52.430Z,99148.70
2019-03-09T14:50:24.882Z,99157.40
2019-03-09T14:52:57.645Z,99144.28
2019-03-09T14:55:31.570Z,99145.07
2019-03-09T14:58:04.180Z,99135.84
2019-03-09T15:00:37.800Z,99143.77
2019-03-09T15:03:10.371Z,99123.86
2019-03-09T15:05:45.609Z,99121.39
2019-03-09T15:08:19.078Z,99110.86
2019-03-09T15:10:51.620Z,99111.97
2019-03-09T15:13:24.169Z,99117.87
2019-03-09T15:15:56.647Z,99105.28
2019-03-09T15:18:29.940Z,99098.03
2019-03-09T15:21:01.178Z,99095.69
2019-03-09T15:23:33.828Z,99092.41
2019-03-09T15:26:06.268Z,99087.18
2019-03-09T15:28:38.800Z,99080.84
2019-03-09T15:31:11.227Z,99078.63
2019-03-09T15:33:46.248Z,99077.40
2019-03-09T15:36:18.778Z,99067.47
2019-03-09T15:38:51.308Z,99073.06
2019-03-09T15:41:23.822Z,99072.42
2019-03-09T15:43:56.229Z,99074.07
2019-03-09T15:46:28.727Z,99074.86
2019-03-09T15:49:01.180Z,99074.71
2019-03-09T15:51:33.873Z,99073.03
2019-03-09T15:54:07.222Z,99081.73
2019-03-09T15:56:39.718Z,99085.72
2019-03-09T15:59:12.258Z,99082.55
2019-03-09T16:01:44.728Z,99086.32
2019-03-09T16:04:17.118Z,99078.00
2019-03-09T16:06:50.711Z,99088.56
2019-03-09T16:09:23.116Z,99085.95
2019-03-09T16:11:56.060Z,99083.33
2019-03-09T16:14:28.388Z,99077.33
2019-03-09T16:17:00.128Z,99073.41
2019-03-09T16:19:37.888Z,99074.79
2019-03-09T16:22:15.820Z,99066.57
2019-03-09T16:24:48.345Z,99068.33
2019-03-09T16:27:21.360Z,99069.86
2019-03-09T16:29:53.728Z,99077.70
2019-03-09T16:32:26.289Z,99073.92
2019-03-09T16:34:58.807Z,99072.70
2019-03-09T16:37:31.361Z,99080.84
2019-03-09T16:40:03.882Z,99085.98
2019-03-09T16:42:36.847Z,99083.00
2019-03-09T16:45:10.020Z,99092.08
2019-03-09T16:47:42.480Z,99093.08
2019-03-09T16:50:17.950Z,99090.32
2019-03-09T16:52:58.218Z,99096.55
2019-03-09T16:55:39.848Z,99089.12
2019-03-09T16:58:28.180Z,99090.50
2019-03-09T17:01:06.389Z,99092.97
2019-03-09T17:03:45.149Z,99096.18
2019-03-09T17:06:22.861Z,99100.73
2019-03-09T17:13:01.094Z,99106.28
2019-03-09T17:15:34.000Z,99109.12
2019-03-09T17:18:06.570Z,99101.45
2019-03-09T17:20:39.139Z,99104.14
2019-03-09T17:23:11.718Z,99102.84
2019-03-09T17:25:44.272Z,99101.98
2019-03-09T17:28:16.958Z,99086.94
2019-03-09T17:30:49.770Z,99088.23
2019-03-09T17:33:22.340Z,99089.55
2019-03-09T17:35:54.850Z,99088.61
2019-03-09T17:38:29.319Z,99080.70
2019-03-09T17:41:01.841Z,99078.77
2019-03-09T17:43:34.340Z,99082.54
2019-03-09T17:46:06.788Z,99077.23
2019-03-09T17:48:40.749Z,99066.30
2019-03-09T17:51:13.801Z,99073.06
2019-03-09T17:53:46.178Z,99056.75
2019-03-09T17:56:18.608Z,99059.14
2019-03-09T17:58:51.068Z,99053.95
2019-03-09T18:01:23.582Z,99052.64
2019-03-09T18:03:56.110Z,99045.52
2019-03-09T18:07:18.082Z,99043.16
2019-03-09T18:10:02.979Z,99042.01
2019-03-09T18:12:40.515Z,99035.73
2019-03-09T18:15:20.500Z,99027.97
2019-03-09T18:18:00.771Z,99023.23
2019-03-09T18:20:34.799Z,99026.73
2019-03-09T18:23:11.428Z,99029.35
2019-03-09T18:25:44.595Z,99018.75
2019-03-09T18:28:23.490Z,99019.69
2019-03-09T18:31:09.262Z,99019.31
2019-03-09T18:33:48.590Z,99012.55
2019-03-09T18:36:22.618Z,99018.83
2019-03-09T18:38:54.980Z,99009.95
2019-03-09T18:41:27.358Z,99015.84
2019-03-09T18:44:01.040Z,98998.48
2019-03-09T18:46:34.249Z,99005.13
2019-03-09T18:49:06.749Z,99000.05
2019-03-09T18:51:49.142Z,98999.48
2019-03-09T18:54:20.418Z,98996.80
2019-03-09T18:56:52.860Z,98988.20
2019-03-09T18:59:25.316Z,98996.80
2019-03-09T19:01:57.610Z,99004.48
2019-03-09T19:04:28.938Z,99013.70
2019-03-09T19:07:01.083Z,99027.19
2019-03-09T19:09:33.772Z,99043.02
2019-03-09T19:12:06.298Z,99043.50
2019-03-09T19:14:38.670Z,99048.58
2019-03-09T19:17:11.288Z,99045.30
2019-03-09T19:19:43.791Z,99005.53
2019-03-09T19:22:16.480Z,99009.16
2019-03-09T19:24:55.332Z,99000.16
2019-03-09T19:27:28.450Z,99006.58
2019-03-09T19:30:01.174Z,98998.13
2019-03-09T19:32:35.098Z,98997.03
2019-03-09T19:35:09.850Z,99002.80
2019-03-09T19:37:42.380Z,98993.40
2019-03-09T19:40:15.668Z,98999.00
2019-03-09T19:42:48.298Z,98990.94
2019-03-09T19:45:23.417Z,98984.72
2019-03-09T19:47:55.819Z,98986.47
2019-03-09T19:50:28.370Z,98998.12
2019-03-09T19:53:00.841Z,98994.05
2019-03-09T19:55:34.434Z,98984.79
2019-03-09T19:58:06.962Z,98982.88
2019-03-09T20:00:39.500Z,98989.87
2019-03-09T20:03:12.412Z,98982.11
2019-03-09T20:05:45.200Z,98985.23
2019-03-09T20:08:17.777Z,98987.29
2019-03-09T20:10:50.211Z,98980.16
2019-03-09T20:13:24.258Z,98977.78
2019-03-09T20:15:58.409Z,98972.19
2019-03-09T20:18:30.921Z,98962.58
2019-03-09T20:21:03.349Z,98958.36
2019-03-09T20:23:35.788Z,98960.25
2019-03-09T20:26:08.213Z,98959.87
2019-03-09T20:28:41.661Z,98950.23
2019-03-09T20:31:14.258Z,98944.55
2019-03-09T20:33:47.328Z,98939.25
2019-03-09T20:36:19.789Z,98939.83
2019-03-09T20:38:53.129Z,98927.05
2019-03-09T20:41:26.509Z,98921.90
2019-03-09T20:43:57.848Z,98920.16
2019-03-09T20:46:29.968Z,98921.70
2019-03-09T20:49:02.348Z,98915.62
2019-03-09T20:51:34.421Z,98910.55
2019-03-09T20:54:06.745Z,98902.28
2019-03-09T20:56:39.234Z,98886.35
2019-03-09T20:59:13.090Z,98885.05
2019-03-09T21:01:45.468Z,98881.45
2019-03-09T21:04:17.242Z,98876.48
2019-03-09T21:06:49.719Z,98866.88
2019-03-09T21:09:22.118Z,98854.09
2019-03-09T21:11:54.451Z,98854.78
2019-03-09T21:14:26.850Z,98848.75
2019-03-09T21:16:59.832Z,98855.70
2019-03-09T21:19:33.751Z,98857.87
2019-03-09T21:22:07.292Z,98854.03
2019-03-09T21:24:40.021Z,98846.35
2019-03-09T21:27:12.539Z,98843.61
2019-03-09T21:29:45.000Z,98832.50
2019-03-09T21:32:17.337Z,98839.59
2019-03-09T21:34:49.777Z,98841.59
2019-03-09T21:37:22.180Z,98840.14
2019-03-09T21:39:54.628Z,98828.56
2019-03-09T21:42:27.410Z,98821.30
2019-03-09T21:44:59.841Z,98821.06
2019-03-09T21:47:33.410Z,98826.27
2019-03-09T21:50:06.610Z,98816.77
2019-03-09T21:52:42.421Z,98810.64
2019-03-09T21:55:16.530Z,98814.92
2019-03-09T21:57:49.240Z,98806.36
2019-03-09T22:00:21.748Z,98801.97
2019-03-09T22:02:54.228Z,98797.75
2019-03-09T22:05:26.568Z,98790.02
2019-03-09T22:07:58.927Z,98778.60
2019-03-09T22:10:31.440Z,98762.22
2019-03-09T22:13:03.778Z,98753.25
2019-03-09T22:15:36.179Z,98745.30
2019-03-09T22:18:08.467Z,98732.66
2019-03-09T22:20:39.769Z,98729.36
2019-03-09T22:23:11.884Z,98735.70
2019-03-09T22:25:44.431Z,98729.44
2019-03-09T22:28:17.681Z,98722.15
2019-03-09T22:30:50.080Z,98717.42
2019-03-09T22:33:22.418Z,98710.98
2019-03-09T22:35:54.850Z,98708.52
2019-03-09T22:38:27.261Z,98703.41
2019-03-09T22:40:59.608Z,98697.20
2019-03-09T22:43:31.950Z,98702.70
2019-03-09T22:46:05.129Z,98691.45
2019-03-09T22:48:37.552Z,98700.65
2019-03-09T22:51:09.980Z,98681.86
2019-03-09T22:53:42.350Z,98676.13
2019-03-09T22:56:15.140Z,98660.05
2019-03-09T22:58:47.455Z,98656.66
2019-03-09T23:01:18.834Z,98651.52
2019-03-09T23:03:51.009Z,98642.28
2019-03-09T23:06:24.458Z,98637.08
2019-03-09T23:08:56.838Z,98629.97
2019-03-09T23:11:29.258Z,98622.16
2019-03-09T23:14:01.669Z,98619.55
2019-03-09T23:16:35.690Z,98605.60
2019-03-09T23:19:07.928Z,98604.23
2019-03-09T23:21:41.109Z,98594.33
2019-03-09T23:24:13.380Z,98600.02
2019-03-09T23:26:45.650Z,98592.66
2019-03-09T23:29:16.861Z,98586.89
2019-03-09T23:31:49.817Z,98586.59
2019-03-09T23:34:22.170Z,98574.35
2019-03-09T23:37:04.958Z,98577.55
2019-03-09T23:39:37.370Z,98573.31
2019-03-09T23:42:10.953Z,98573.42
2019-03-09T23:44:44.481Z,98570.89
2019-03-09T23:47:16.980Z,98570.92
2019-03-09T23:49:50.548Z,98567.80
2019-03-09T23:52:23.000Z,98570.45
2019-03-09T23:54:55.390Z,98556.38
2019-03-09T23:57:27.808Z,98555.23
